createdAt,value
2018-04-28T14:51:09.096Z,30.45
2018-04-28T14:53:38.014Z,30.39
2018-04-28T14:56:07.046Z,30.34
2018-04-28T14:58:35.969Z,30.25
2018-04-28T15:01:04.905Z,30.16
2018-04-28T15:03:33.890Z,30.35
2018-04-28T15:06:02.946Z,30.55
2018-04-28T15:08:31.857Z,30.64
2018-04-28T15:11:00.823Z,30.66
2018-04-28T15:13:29.744Z,30.67
2018-04-28T15:15:58.699Z,30.70
2018-04-28T15:18:27.684Z,30.78
2018-04-28T15:20:56.603Z,30.85
2018-04-28T15:23:25.625Z,30.91
2018-04-28T15:25:54.609Z,31.03
2018-04-28T15:28:23.700Z,31.14
2018-04-28T15:30:52.759Z,31.18
2018-04-28T15:33:21.729Z,31.22
2018-04-28T15:35:50.639Z,31.18
2018-04-28T15:38:19.909Z,31.17
2018-04-28T15:40:48.821Z,31.18
2018-04-28T15:43:17.764Z,31.20
2018-04-28T15:45:46.740Z,31.04
2018-04-28T15:48:15.645Z,31.05
2018-04-28T15:50:44.547Z,31.13
2018-04-28T15:53:13.810Z,31.15
2018-04-28T15:55:42.713Z,31.07
2018-04-28T15:58:11.658Z,31.05
2018-04-28T16:00:41.209Z,31.00
2018-04-28T16:03:10.126Z,31.00
2018-04-28T16:05:39.038Z,31.05
2018-04-28T16:08:08.079Z,31.05
2018-04-28T16:10:36.983Z,31.04
2018-04-28T16:13:06.389Z,30.72
2018-04-28T16:15:35.381Z,30.17
2018-04-28T16:18:06.053Z,30.03
2018-04-28T16:20:37.022Z,29.85
2018-04-28T16:23:07.909Z,29.76
2018-04-28T16:25:38.990Z,29.73
2018-04-28T16:28:10.093Z,29.75
2018-04-28T16:30:41.104Z,29.70
2018-04-28T16:33:11.996Z,29.65
2018-04-28T16:35:43.024Z,29.52
2018-04-28T16:38:13.943Z,29.37
2018-04-28T16:40:45.158Z,29.24
2018-04-28T16:43:15.669Z,29.17
2018-04-28T16:45:46.417Z,29.07
2018-04-28T16:48:17.097Z,28.88
2018-04-28T16:50:48.325Z,28.75
2018-04-28T16:53:18.748Z,28.55
2018-04-28T16:55:50.304Z,28.44
2018-04-28T16:58:20.310Z,28.25
2018-04-28T17:00:51.347Z,28.09
2018-04-28T17:03:22.047Z,27.97
2018-04-28T17:05:53.391Z,27.81
2018-04-28T17:08:24.038Z,27.72
2018-04-28T17:10:55.105Z,27.64
2018-04-28T17:13:25.968Z,27.53
2018-04-28T17:15:56.957Z,27.40
2018-04-28T17:18:27.553Z,27.31
2018-04-28T17:20:58.322Z,27.19
2018-04-28T17:23:29.086Z,27.07
2018-04-28T17:25:59.724Z,26.97
2018-04-28T17:28:30.306Z,26.87
2018-04-28T17:31:01.097Z,26.74
2018-04-28T17:33:31.974Z,26.67
2018-04-28T17:36:03.162Z,26.57
2018-04-28T17:38:34.101Z,26.45
2018-04-28T17:41:05.089Z,26.32
2018-04-28T17:43:36.075Z,26.23
2018-04-28T17:46:06.910Z,26.14
2018-04-28T17:48:38.056Z,26.04
2018-04-28T17:51:09.493Z,25.96
2018-04-28T17:53:40.162Z,25.88
2018-04-28T17:56:10.826Z,25.80
2018-04-28T17:58:41.558Z,25.72
2018-04-28T18:01:12.353Z,25.64
2018-04-28T18:03:43.060Z,25.55
2018-04-28T18:06:14.144Z,25.49
2018-04-28T18:08:45.047Z,25.38
2018-04-28T18:11:16.040Z,25.27
2018-04-28T18:13:47.309Z,25.21
2018-04-28T18:16:18.222Z,25.10
2018-04-28T18:18:49.061Z,24.98
2018-04-28T18:21:20.079Z,24.97
2018-04-28T18:23:51.038Z,24.90
2018-04-28T18:26:22.189Z,24.83
2018-04-28T18:28:53.053Z,24.70
2018-04-28T18:31:24.657Z,24.60
2018-04-28T18:33:55.215Z,24.53
2018-04-28T18:36:26.119Z,24.45
2018-04-28T18:38:57.167Z,24.38
2018-04-28T18:41:28.130Z,24.29
2018-04-28T18:44:00.473Z,24.21
2018-04-28T18:46:30.657Z,24.12
2018-04-28T18:49:01.436Z,24.06
2018-04-28T18:51:32.220Z,23.95
2018-04-28T18:54:03.058Z,23.88
2018-04-28T18:56:34.062Z,23.82
2018-04-28T18:59:04.538Z,23.92
2018-04-28T19:01:36.313Z,23.74
2018-04-28T19:04:06.811Z,23.65
2018-04-28T19:06:37.355Z,23.61
2018-04-28T19:09:08.111Z,23.59
2018-04-28T19:11:39.369Z,23.58
2018-04-28T19:14:10.566Z,23.58
2018-04-28T19:16:40.581Z,23.53
2018-04-28T19:19:11.308Z,23.46
2018-04-28T19:21:42.203Z,23.42
2018-04-28T19:24:13.430Z,23.40
2018-04-28T19:26:45.064Z,23.39
2018-04-28T19:29:15.731Z,23.39
2018-04-28T19:31:46.590Z,23.37
2018-04-28T19:34:17.425Z,23.33
2018-04-28T19:36:48.142Z,23.30
2018-04-28T19:39:19.183Z,23.26
2018-04-28T19:41:51.032Z,23.23
2018-04-28T19:44:21.633Z,23.20
2018-04-28T19:46:52.406Z,23.15
2018-04-28T19:49:23.154Z,23.12
2018-04-28T19:51:53.994Z,23.08
2018-04-28T19:54:25.139Z,23.04
2018-04-28T19:56:56.078Z,23.00
2018-04-28T19:59:27.086Z,22.95
2018-04-28T20:01:58.149Z,22.91
2018-04-28T20:04:28.807Z,22.88
2018-04-28T20:06:59.770Z,22.84
2018-04-28T20:09:30.482Z,22.79
2018-04-28T20:12:01.783Z,22.74
2018-04-28T20:14:33.410Z,22.69
2018-04-28T20:17:03.754Z,22.63
2018-04-28T20:19:34.314Z,22.57
2018-04-28T20:22:16.314Z,22.48
2018-04-28T20:24:56.490Z,22.41
2018-04-28T20:27:25.764Z,22.36
2018-04-28T20:29:54.715Z,22.30
2018-04-28T20:32:23.968Z,22.19
2018-04-28T20:34:53.993Z,22.12
2018-04-28T20:37:23.533Z,22.06
2018-04-28T20:39:52.797Z,21.98
2018-04-28T20:42:22.407Z,21.92
2018-04-28T20:44:51.787Z,21.85
2018-04-28T20:47:20.862Z,21.77
2018-04-28T20:49:49.847Z,21.68
2018-04-28T20:52:18.902Z,21.59
2018-04-28T20:54:47.849Z,21.53
2018-04-28T20:57:16.825Z,21.48
2018-04-28T20:59:47.657Z,21.39
2018-04-28T21:02:18.314Z,21.33
2018-04-28T21:04:49.220Z,21.26
2018-04-28T21:07:20.111Z,21.18
2018-04-28T21:09:51.186Z,21.10
2018-04-28T21:12:22.175Z,21.05
2018-04-28T21:14:53.161Z,21.03
2018-04-28T21:17:24.237Z,21.01
2018-04-28T21:19:55.139Z,21.00
2018-04-28T21:22:26.256Z,20.99
2018-04-28T21:24:57.408Z,20.97
2018-04-28T21:27:28.235Z,20.95
2018-04-28T21:29:59.154Z,20.83
2018-04-28T21:32:30.204Z,20.54
2018-04-28T21:35:01.125Z,20.55
2018-04-28T21:37:32.121Z,20.57
2018-04-28T21:40:03.103Z,20.57
2018-04-28T21:42:33.806Z,20.60
2018-04-28T21:45:04.512Z,20.59
2018-04-28T21:47:35.498Z,20.59
2018-04-28T21:50:06.210Z,20.60
2018-04-28T21:52:37.201Z,20.57
2018-04-28T21:55:08.137Z,20.53
2018-04-28T21:57:39.182Z,20.47
2018-04-28T22:00:10.154Z,20.39
2018-04-28T22:02:41.522Z,20.36
2018-04-28T22:05:12.303Z,20.34
2018-04-28T22:07:43.180Z,20.33
2018-04-28T22:10:14.125Z,20.31
2018-04-28T22:12:45.092Z,20.30
2018-04-28T22:15:16.517Z,20.21
2018-04-28T22:17:47.437Z,20.19
2018-04-28T22:20:18.154Z,19.97
2018-04-28T22:22:48.744Z,19.93
2018-04-28T22:25:19.879Z,19.88
2018-04-28T22:27:50.683Z,19.91
2018-04-28T22:30:21.378Z,19.90
2018-04-28T22:32:52.119Z,19.92
2018-04-28T22:35:22.662Z,19.82
2018-04-28T22:37:53.427Z,19.81
2018-04-28T22:40:23.382Z,19.83
2018-04-28T22:42:54.175Z,19.81
2018-04-28T22:45:25.026Z,19.82
2018-04-28T22:47:56.181Z,19.75
2018-04-28T22:50:27.073Z,19.67
2018-04-28T22:52:58.137Z,19.63
2018-04-28T22:55:29.113Z,19.62
2018-04-28T22:58:00.105Z,19.65
2018-04-28T23:00:45.618Z,19.60
2018-04-28T23:03:14.621Z,19.54
2018-04-28T23:05:43.558Z,19.52
2018-04-28T23:08:12.514Z,19.49
2018-04-28T23:10:41.851Z,19.49
2018-04-28T23:13:10.801Z,19.50
2018-04-28T23:15:39.598Z,19.52
2018-04-28T23:18:08.653Z,19.52
2018-04-28T23:20:39.378Z,19.52
2018-04-28T23:23:10.446Z,19.52
2018-04-28T23:25:41.467Z,19.50
2018-04-28T23:28:12.349Z,19.50
2018-04-28T23:30:43.099Z,19.49
2018-04-28T23:33:14.142Z,19.47
2018-04-28T23:35:45.031Z,19.46
2018-04-28T23:38:16.171Z,19.42
2018-04-28T23:40:47.120Z,19.21
2018-04-28T23:43:18.181Z,18.90
2018-04-28T23:45:49.108Z,18.64
2018-04-28T23:48:20.354Z,18.42
2018-04-28T23:50:51.090Z,18.20
2018-04-28T23:53:21.889Z,18.03
2018-04-28T23:55:52.595Z,17.89
2018-04-28T23:58:23.385Z,17.76
